createdAt,value
2018-01-25T00:00:41.731Z,1.53
2018-01-25T00:03:10.174Z,1.40
2018-01-25T00:05:38.274Z,1.53
2018-01-25T00:08:17.108Z,1.77
2018-01-25T00:10:45.230Z,1.63
2018-01-25T00:13:13.322Z,1.70
2018-01-25T00:15:41.434Z,2.23
2018-01-25T00:18:25.893Z,1.80
2018-01-25T00:20:54.002Z,1.70
2018-01-25T00:23:22.103Z,1.90
2018-01-25T00:25:50.224Z,3.57
2018-01-25T00:28:18.324Z,2.90
2018-01-25T00:30:46.436Z,2.30
2018-01-25T00:33:14.530Z,2.03
2018-01-25T00:35:43.537Z,3.10
2018-01-25T00:38:11.659Z,2.70
2018-01-25T00:40:39.777Z,2.83
2018-01-25T00:43:07.897Z,2.17
2018-01-25T00:45:35.982Z,1.40
2018-01-25T00:48:04.078Z,0.97
2018-01-25T00:50:32.196Z,1.00
2018-01-25T00:53:15.997Z,0.80
2018-01-25T00:55:44.111Z,0.90
2018-01-25T00:58:21.977Z,0.80
2018-01-25T01:00:50.095Z,0.77
2018-01-25T01:03:18.194Z,0.70
2018-01-25T01:05:52.386Z,0.70
2018-01-25T01:08:20.485Z,0.60
2018-01-25T01:10:52.507Z,0.70
2018-01-25T01:13:34.777Z,0.50
2018-01-25T01:16:02.878Z,0.80
2018-01-25T01:18:30.995Z,0.50
2018-01-25T01:20:59.085Z,0.60
2018-01-25T01:23:34.640Z,0.50
2018-01-25T01:26:02.743Z,0.63
2018-01-25T01:28:30.856Z,0.50
2018-01-25T01:30:58.964Z,0.70
2018-01-25T01:33:27.067Z,0.60
2018-01-25T01:35:55.172Z,0.90
2018-01-25T01:38:23.268Z,1.07
2018-01-25T01:40:59.731Z,1.37
2018-01-25T01:43:30.916Z,1.30
2018-01-25T01:45:59.014Z,1.63
2018-01-25T01:48:27.116Z,1.47
2018-01-25T01:50:55.213Z,1.73
2018-01-25T01:53:23.316Z,1.60
2018-01-25T01:55:51.417Z,1.50
2018-01-25T01:58:19.518Z,1.63
2018-01-25T02:00:47.633Z,1.50
2018-01-25T02:03:15.739Z,1.40
2018-01-25T02:05:43.822Z,1.43
2018-01-25T02:08:26.963Z,1.20
2018-01-25T02:10:55.049Z,1.10
2018-01-25T02:13:23.156Z,0.90
2018-01-25T02:15:51.259Z,0.97
2018-01-25T02:18:19.359Z,0.90
2018-01-25T02:20:48.890Z,1.00
2018-01-25T02:23:16.984Z,0.90
2018-01-25T02:25:45.073Z,1.07
2018-01-25T02:28:13.169Z,1.23
2018-01-25T02:30:41.288Z,1.60
2018-01-25T02:33:09.373Z,2.40
2018-01-25T02:35:37.476Z,3.10
2018-01-25T02:38:05.588Z,3.53
2018-01-25T02:40:33.669Z,3.57
2018-01-25T02:43:01.787Z,3.60
2018-01-25T02:45:29.880Z,3.00
2018-01-25T02:47:57.988Z,2.70
2018-01-25T02:50:26.152Z,2.33
2018-01-25T02:52:54.259Z,2.00
2018-01-25T02:55:22.385Z,2.20
2018-01-25T02:57:50.487Z,2.20
2018-01-25T03:00:18.592Z,2.30
2018-01-25T03:02:46.709Z,2.57
2018-01-25T03:05:14.797Z,2.93
2018-01-25T03:07:42.900Z,3.37
2018-01-25T03:10:10.997Z,3.80
2018-01-25T03:12:39.099Z,3.70
2018-01-25T03:15:07.193Z,3.70
2018-01-25T03:17:35.285Z,3.30
2018-01-25T03:20:15.776Z,2.77
2018-01-25T03:22:43.865Z,3.50
2018-01-25T03:25:11.994Z,2.93
2018-01-25T03:27:40.081Z,2.67
2018-01-25T03:30:09.113Z,2.40
2018-01-25T03:32:37.223Z,2.40
2018-01-25T03:35:05.312Z,2.33
2018-01-25T03:37:33.407Z,2.03
2018-01-25T03:40:01.495Z,1.90
2018-01-25T03:42:29.610Z,1.90
2018-01-25T03:44:57.702Z,1.93
2018-01-25T03:47:25.813Z,2.00
2018-01-25T03:49:53.902Z,1.40
2018-01-25T03:52:22.012Z,1.57
2018-01-25T03:54:50.106Z,1.30
2018-01-25T03:57:18.213Z,1.60
2018-01-25T03:59:46.294Z,1.33
2018-01-25T04:02:14.412Z,1.10
2018-01-25T04:04:51.173Z,1.20
2018-01-25T04:07:19.301Z,1.10
2018-01-25T04:09:47.357Z,1.20
2018-01-25T04:12:15.475Z,1.17
2018-01-25T04:14:43.570Z,1.70
2018-01-25T04:17:11.663Z,1.10
2018-01-25T04:19:43.557Z,1.00
2018-01-25T04:22:11.637Z,0.90
2018-01-25T04:24:39.733Z,1.13
2018-01-25T04:27:20.630Z,1.10
2018-01-25T04:29:48.729Z,1.13
2018-01-25T04:32:16.842Z,1.20
2018-01-25T04:34:44.946Z,1.00
2018-01-25T04:37:13.029Z,1.60
2018-01-25T04:39:41.132Z,1.47
2018-01-25T04:42:09.251Z,1.90
2018-01-25T04:44:38.287Z,2.03
2018-01-25T04:47:06.382Z,2.20
2018-01-25T04:49:34.469Z,2.10
2018-01-25T04:52:02.567Z,2.20
2018-01-25T04:54:38.375Z,2.30
2018-01-25T04:57:06.466Z,2.20
2018-01-25T04:59:34.565Z,2.50
2018-01-25T05:02:02.672Z,1.80
2018-01-25T05:04:30.772Z,2.10
2018-01-25T05:06:58.892Z,2.00
2018-01-25T05:09:27.918Z,1.90
2018-01-25T05:11:57.147Z,2.07
2018-01-25T05:14:25.263Z,1.60
2018-01-25T05:16:55.173Z,1.87
2018-01-25T05:19:23.280Z,1.77
2018-01-25T05:21:51.374Z,1.77
2018-01-25T05:24:19.479Z,1.53
2018-01-25T05:26:47.602Z,1.20
2018-01-25T05:29:15.681Z,1.33
2018-01-25T05:31:43.787Z,1.80
2018-01-25T05:34:16.312Z,1.60
2018-01-25T05:36:44.428Z,1.20
2018-01-25T05:39:12.528Z,1.10
2018-01-25T05:41:40.609Z,1.20
2018-01-25T05:47:10.220Z,1.50
2018-01-25T05:49:38.324Z,1.10
2018-01-25T05:52:06.431Z,1.30
2018-01-25T05:54:34.537Z,1.20
2018-01-25T05:57:02.626Z,0.80
2018-01-25T05:59:30.728Z,1.23
2018-01-25T06:01:58.822Z,1.30
2018-01-25T06:04:26.925Z,1.10
2018-01-25T06:06:55.009Z,1.23
2018-01-25T06:09:23.103Z,1.30
2018-01-25T06:11:51.219Z,1.27
2018-01-25T06:14:19.316Z,1.33
2018-01-25T06:16:47.427Z,2.13
2018-01-25T06:19:15.596Z,1.53
2018-01-25T06:21:43.698Z,1.30
2018-01-25T06:24:11.807Z,1.40
2018-01-25T06:26:39.945Z,1.20
2018-01-25T06:29:08.016Z,1.43
2018-01-25T06:31:36.116Z,1.57
2018-01-25T06:34:04.238Z,1.53
2018-01-25T06:36:32.340Z,1.40
2018-01-25T06:39:00.439Z,1.50
2018-01-25T06:41:40.603Z,1.23
2018-01-25T06:44:12.075Z,1.93
2018-01-25T06:46:42.105Z,1.80
2018-01-25T06:49:13.859Z,1.23
2018-01-25T06:51:41.963Z,1.60
2018-01-25T06:54:10.050Z,1.30
2018-01-25T06:56:40.139Z,1.77
2018-01-25T06:59:08.232Z,1.67
2018-01-25T07:01:36.335Z,1.83
2018-01-25T07:04:04.435Z,2.27
2018-01-25T07:06:32.525Z,2.10
2018-01-25T07:09:00.626Z,1.77
2018-01-25T07:11:28.713Z,2.10
2018-01-25T07:13:56.811Z,2.00
2018-01-25T07:16:24.910Z,2.53
2018-01-25T07:18:52.998Z,2.23
2018-01-25T07:21:21.111Z,2.30
2018-01-25T07:23:49.238Z,2.23
2018-01-25T07:26:17.341Z,2.60
2018-01-25T07:28:45.439Z,2.50
2018-01-25T07:31:18.634Z,2.70
2018-01-25T07:33:46.744Z,3.33
2018-01-25T07:36:14.875Z,2.60
2018-01-25T07:38:42.948Z,3.20
2018-01-25T07:41:11.055Z,2.80
2018-01-25T07:43:39.156Z,3.03
2018-01-25T07:46:07.291Z,3.17
2018-01-25T07:48:35.369Z,2.70
2018-01-25T07:51:03.472Z,3.20
2018-01-25T07:53:31.576Z,2.70
2018-01-25T07:55:59.662Z,2.77
2018-01-25T07:58:27.772Z,2.90
2018-01-25T08:00:55.865Z,2.80
2018-01-25T08:03:23.968Z,3.30
2018-01-25T08:05:52.066Z,3.20
2018-01-25T08:08:22.061Z,3.00
2018-01-25T08:10:50.179Z,3.50
2018-01-25T08:16:24.817Z,3.33
2018-01-25T08:18:52.994Z,3.73
2018-01-25T08:21:21.214Z,3.33
2018-01-25T08:23:49.452Z,3.53
2018-01-25T08:26:17.658Z,3.57
2018-01-25T08:28:45.966Z,3.53
2018-01-25T08:31:14.239Z,3.47
2018-01-25T08:33:42.410Z,3.97
2018-01-25T08:36:10.648Z,3.70
2018-01-25T08:38:38.932Z,3.80
2018-01-25T08:41:11.491Z,3.90
2018-01-25T08:43:39.664Z,3.93
2018-01-25T08:46:07.962Z,3.87
2018-01-25T08:48:36.205Z,3.80
2018-01-25T08:51:05.055Z,3.43
2018-01-25T08:53:33.480Z,3.73
2018-01-25T08:56:01.678Z,3.50
2018-01-25T08:58:29.976Z,3.73
2018-01-25T09:00:58.195Z,3.83
2018-01-25T09:03:26.460Z,4.00
2018-01-25T09:05:55.638Z,3.53
2018-01-25T09:08:23.916Z,4.00
2018-01-25T09:10:52.164Z,3.67
2018-01-25T09:13:20.376Z,3.60
2018-01-25T09:15:48.797Z,3.80
2018-01-25T09:18:17.082Z,3.50
2018-01-25T09:20:45.450Z,3.67
2018-01-25T09:23:13.652Z,3.40
2018-01-25T09:25:42.019Z,3.17
2018-01-25T09:28:10.250Z,3.50
2018-01-25T09:30:38.519Z,3.20
2018-01-25T09:33:06.674Z,3.00
2018-01-25T09:35:34.834Z,3.20
2018-01-25T09:39:06.133Z,3.43
2018-01-25T09:41:45.839Z,3.53
2018-01-25T09:44:23.714Z,3.57
2018-01-25T09:46:51.997Z,3.20
2018-01-25T09:49:21.523Z,3.17
2018-01-25T09:51:51.702Z,2.97
2018-01-25T09:54:20.407Z,3.37
2018-01-25T09:56:48.848Z,3.90
2018-01-25T09:59:17.336Z,4.10
2018-01-25T10:01:45.674Z,3.53
2018-01-25T10:04:17.618Z,3.83
2018-01-25T10:06:45.898Z,4.23
2018-01-25T10:09:14.486Z,4.13
2018-01-25T10:11:42.780Z,4.40
2018-01-25T10:14:10.991Z,4.00
2018-01-25T10:16:39.257Z,4.33
2018-01-25T10:19:07.409Z,4.40
2018-01-25T10:21:35.655Z,4.37
2018-01-25T10:24:04.026Z,4.43
2018-01-25T10:26:35.685Z,3.90
2018-01-25T10:29:04.858Z,4.10
2018-01-25T10:31:33.051Z,3.57
2018-01-25T10:34:01.306Z,3.97
2018-01-25T10:36:29.518Z,4.07
2018-01-25T10:38:57.802Z,4.37
2018-01-25T10:41:26.003Z,3.97
2018-01-25T10:43:55.499Z,4.30
2018-01-25T10:46:23.769Z,3.83
2018-01-25T10:48:52.026Z,4.00
2018-01-25T10:51:20.584Z,3.50
2018-01-25T10:53:48.917Z,2.63
2018-01-25T10:56:17.277Z,2.90
2018-01-25T10:58:45.549Z,3.00
2018-01-25T11:01:21.221Z,3.03
2018-01-25T11:03:49.635Z,2.57
2018-01-25T11:06:17.917Z,2.90
2018-01-25T11:08:46.474Z,2.60
2018-01-25T11:11:15.857Z,2.83
2018-01-25T11:13:44.793Z,3.40
2018-01-25T11:16:13.088Z,2.80
2018-01-25T11:18:41.388Z,3.13
2018-01-25T11:23:52.644Z,3.30
2018-01-25T11:26:20.923Z,3.27
2018-01-25T11:28:49.123Z,3.00
2018-01-25T11:31:18.696Z,3.10
2018-01-25T11:33:51.158Z,3.00
2018-01-25T11:36:19.385Z,3.20
2018-01-25T11:38:49.720Z,3.33
2018-01-25T11:43:56.697Z,3.47
2018-01-25T11:46:24.964Z,2.50
2018-01-25T11:51:28.000Z,2.90
2018-01-25T11:53:57.856Z,2.97
2018-01-25T11:56:29.409Z,2.77
2018-01-25T11:58:57.718Z,2.63
2018-01-25T12:01:26.433Z,2.73
2018-01-25T12:03:57.395Z,2.70
2018-01-25T12:06:26.945Z,2.80
2018-01-25T12:08:55.546Z,2.60
2018-01-25T12:11:24.067Z,2.30
2018-01-25T12:16:31.754Z,2.90
2018-01-25T12:19:01.158Z,3.10
2018-01-25T12:24:10.594Z,3.43
2018-01-25T12:26:39.054Z,2.97
2018-01-25T12:29:09.232Z,2.57
2018-01-25T12:31:38.541Z,2.80
2018-01-25T12:34:08.946Z,2.93
2018-01-25T12:36:42.768Z,2.97
2018-01-25T12:39:12.000Z,2.93
2018-01-25T12:41:44.621Z,3.20
2018-01-25T12:44:15.105Z,2.87
2018-01-25T12:46:44.429Z,2.90
2018-01-25T12:49:13.730Z,2.70
2018-01-25T12:51:52.656Z,2.77
2018-01-25T12:54:25.785Z,3.53
2018-01-25T12:56:59.973Z,3.07
2018-01-25T12:59:32.510Z,2.47
2018-01-25T13:02:01.942Z,2.97
2018-01-25T13:04:30.746Z,2.80
2018-01-25T13:07:05.152Z,2.57
2018-01-25T13:09:41.840Z,2.20
2018-01-25T13:12:11.996Z,2.30
2018-01-25T13:14:40.294Z,2.63
2018-01-25T13:17:08.574Z,2.87
2018-01-25T13:19:39.100Z,2.37
2018-01-25T13:22:13.625Z,2.50
2018-01-25T13:24:41.928Z,2.93
2018-01-25T13:27:10.199Z,2.83
2018-01-25T13:29:38.467Z,3.03
2018-01-25T13:32:06.884Z,2.90
2018-01-25T13:34:35.098Z,3.33
2018-01-25T13:37:05.380Z,2.93
2018-01-25T13:39:33.724Z,3.00
2018-01-25T13:42:06.400Z,3.20
2018-01-25T13:44:34.950Z,2.93
2018-01-25T13:47:10.553Z,2.93
2018-01-25T13:49:39.130Z,2.77
2018-01-25T13:52:07.480Z,2.90
2018-01-25T13:54:36.673Z,7.33
2018-01-25T13:57:24.516Z,16.10
2018-01-25T13:59:58.386Z,35.47
2018-01-25T14:02:26.656Z,8.40
2018-01-25T14:04:54.958Z,2.90
2018-01-25T14:07:23.228Z,2.37
2018-01-25T14:09:51.535Z,2.77
2018-01-25T14:12:21.576Z,2.30
2018-01-25T14:14:49.927Z,2.27
2018-01-25T14:17:18.244Z,3.60
2018-01-25T14:19:46.522Z,4.03
2018-01-25T14:22:18.458Z,5.00
2018-01-25T14:24:46.749Z,7.70
2018-01-25T14:27:14.936Z,2.93
2018-01-25T14:29:43.240Z,3.53
2018-01-25T14:32:11.380Z,2.60
2018-01-25T14:34:39.666Z,3.20
2018-01-25T14:37:11.206Z,2.27
2018-01-25T14:39:41.034Z,2.30
2018-01-25T14:42:09.714Z,2.67
2018-01-25T14:44:37.959Z,2.50
2018-01-25T14:47:06.243Z,2.67
2018-01-25T14:49:34.440Z,2.30
2018-01-25T14:52:03.520Z,2.57
2018-01-25T14:54:32.695Z,3.10
2018-01-25T14:57:00.894Z,2.73
2018-01-25T14:59:29.122Z,2.60
2018-01-25T15:01:57.436Z,2.93
2018-01-25T15:04:25.959Z,2.83
2018-01-25T15:06:54.198Z,2.77
2018-01-25T15:09:22.377Z,2.70
2018-01-25T15:11:50.573Z,2.80
2018-01-25T15:14:24.394Z,2.80
2018-01-25T15:16:52.679Z,3.07
2018-01-25T15:19:21.033Z,3.00
2018-01-25T15:21:49.203Z,3.17
2018-01-25T15:24:17.460Z,3.80
2018-01-25T15:26:50.586Z,3.00
2018-01-25T15:29:19.960Z,3.30
2018-01-25T15:31:48.179Z,3.57
2018-01-25T15:34:17.764Z,3.90
2018-01-25T15:36:46.034Z,4.40
2018-01-25T15:39:14.227Z,3.43
2018-01-25T15:41:42.510Z,3.03
2018-01-25T15:44:10.702Z,3.13
2018-01-25T15:46:48.214Z,2.80
2018-01-25T15:49:19.608Z,2.90
2018-01-25T15:51:48.803Z,2.93
2018-01-25T15:54:18.900Z,2.90
2018-01-25T15:56:47.560Z,2.90
2018-01-25T15:59:19.298Z,3.23
2018-01-25T16:01:47.402Z,3.23
2018-01-25T16:04:15.523Z,2.60
2018-01-25T16:06:45.134Z,3.00
2018-01-25T16:09:13.792Z,2.57
2018-01-25T16:11:41.907Z,2.67
2018-01-25T16:14:10.015Z,3.00
2018-01-25T16:16:38.197Z,2.57
2018-01-25T16:19:12.059Z,2.57
2018-01-25T16:21:40.159Z,2.23
2018-01-25T16:24:10.227Z,2.50
2018-01-25T16:26:38.344Z,2.83
2018-01-25T16:29:06.449Z,3.30
2018-01-25T16:31:34.578Z,3.43
2018-01-25T16:34:02.869Z,2.70
2018-01-25T16:36:45.224Z,2.57
2018-01-25T16:39:13.329Z,2.30
2018-01-25T16:41:41.465Z,2.00
2018-01-25T16:44:09.578Z,2.00
2018-01-25T16:46:43.348Z,1.73
2018-01-25T16:49:22.736Z,1.97
2018-01-25T16:52:02.212Z,1.57
2018-01-25T16:54:30.312Z,1.53
2018-01-25T16:56:58.402Z,1.30
2018-01-25T16:59:26.516Z,1.70
2018-01-25T17:02:02.774Z,1.43
2018-01-25T17:04:44.040Z,1.20
2018-01-25T17:07:12.151Z,1.20
2018-01-25T17:09:40.253Z,1.13
2018-01-25T17:12:08.356Z,1.13
2018-01-25T17:14:39.992Z,1.10
2018-01-25T17:17:14.388Z,1.30
2018-01-25T17:19:46.171Z,1.20
2018-01-25T17:22:14.279Z,1.50
2018-01-25T17:24:43.311Z,1.93
2018-01-25T17:27:11.891Z,1.80
2018-01-25T17:29:42.972Z,1.80
2018-01-25T17:32:11.096Z,1.27
2018-01-25T17:34:41.127Z,1.10
2018-01-25T17:37:10.148Z,1.40
2018-01-25T17:39:39.222Z,1.80
2018-01-25T17:42:10.365Z,1.67
2018-01-25T17:44:38.449Z,1.90
2018-01-25T17:47:08.539Z,1.83
2018-01-25T17:49:36.633Z,2.17
2018-01-25T17:52:08.870Z,2.00
2018-01-25T17:54:36.965Z,1.93
2018-01-25T17:57:05.077Z,2.23
2018-01-25T17:59:35.195Z,1.97
2018-01-25T18:02:05.265Z,2.10
2018-01-25T18:04:33.353Z,2.00
2018-01-25T18:07:01.468Z,2.00
2018-01-25T18:09:33.195Z,2.17
2018-01-25T18:12:01.289Z,2.00
2018-01-25T18:14:29.415Z,2.00
2018-01-25T18:16:57.511Z,1.60
2018-01-25T18:19:25.623Z,1.70
2018-01-25T18:21:54.651Z,1.63
2018-01-25T18:24:22.767Z,1.73
2018-01-25T18:26:50.853Z,1.70
2018-01-25T18:29:22.481Z,2.10
2018-01-25T18:31:50.577Z,2.53
2018-01-25T18:34:25.534Z,2.40
2018-01-25T18:36:54.550Z,2.40
2018-01-25T18:39:22.646Z,1.90
2018-01-25T18:41:50.752Z,2.07
2018-01-25T18:44:19.806Z,2.50
2018-01-25T18:46:47.907Z,2.50
2018-01-25T18:49:19.623Z,2.77
2018-01-25T18:51:47.717Z,2.73
2018-01-25T18:54:15.833Z,2.17
2018-01-25T18:56:54.247Z,3.60
2018-01-25T18:59:23.278Z,2.50
2018-01-25T19:01:51.384Z,2.10
2018-01-25T19:04:19.496Z,2.50
2018-01-25T19:06:47.606Z,2.93
2018-01-25T19:09:15.723Z,3.27
2018-01-25T19:11:49.631Z,2.33
2018-01-25T19:14:17.724Z,2.73
2018-01-25T19:16:45.833Z,2.00
2018-01-25T19:19:13.931Z,2.30
2018-01-25T19:21:42.027Z,2.17
2018-01-25T19:24:10.133Z,2.37
2018-01-25T19:26:38.247Z,2.40
2018-01-25T19:29:06.334Z,2.00
2018-01-25T19:31:36.428Z,2.00
2018-01-25T19:34:04.525Z,2.50
2018-01-25T19:36:32.625Z,2.53
2018-01-25T19:39:00.739Z,2.40
2018-01-25T19:41:28.830Z,2.37
2018-01-25T19:44:04.426Z,2.03
2018-01-25T19:46:32.513Z,2.23
2018-01-25T19:49:02.548Z,2.73
2018-01-25T19:51:31.554Z,2.10
2018-01-25T19:53:59.662Z,2.80
2018-01-25T19:56:27.736Z,3.03
2018-01-25T19:59:00.249Z,2.80
2018-01-25T20:01:28.420Z,3.00
2018-01-25T20:03:56.507Z,2.67
2018-01-25T20:06:28.143Z,2.40
2018-01-25T20:08:56.225Z,2.47
2018-01-25T20:11:24.330Z,2.30
2018-01-25T20:13:57.358Z,2.40
2018-01-25T20:16:25.468Z,2.20
2018-01-25T20:18:53.553Z,2.20
2018-01-25T20:21:21.664Z,2.20
2018-01-25T20:23:49.762Z,2.47
2018-01-25T20:26:17.857Z,2.30
2018-01-25T20:28:49.080Z,2.50
2018-01-25T20:31:17.240Z,3.33
2018-01-25T20:33:46.374Z,3.10
2018-01-25T20:36:14.461Z,3.03
2018-01-25T20:38:43.477Z,2.57
2018-01-25T20:41:11.660Z,3.50
2018-01-25T20:43:39.738Z,3.17
2018-01-25T20:46:14.983Z,3.57
2018-01-25T20:48:43.084Z,3.40
2018-01-25T20:51:11.257Z,2.57
2018-01-25T20:53:39.345Z,2.80
2018-01-25T20:56:07.456Z,3.10
2018-01-25T20:58:38.738Z,3.00
2018-01-25T21:01:06.839Z,3.17
2018-01-25T21:03:34.952Z,2.97
2018-01-25T21:06:04.979Z,3.13
2018-01-25T21:08:33.099Z,2.90
2018-01-25T21:11:01.201Z,3.63
2018-01-25T21:13:35.739Z,3.23
2018-01-25T21:16:05.754Z,3.83
2018-01-25T21:18:45.327Z,5.30
2018-01-25T21:21:13.435Z,13.10
2018-01-25T21:23:41.531Z,13.73
2018-01-25T21:26:15.501Z,12.60
2018-01-25T21:28:43.612Z,10.20
2018-01-25T21:31:15.834Z,8.60
2018-01-25T21:33:43.949Z,6.57
2018-01-25T21:36:26.505Z,6.77
2018-01-25T21:38:54.676Z,11.03
2018-01-25T21:41:33.011Z,10.40
2018-01-25T21:44:01.211Z,19.27
2018-01-25T21:46:29.378Z,50.53
2018-01-25T21:49:08.928Z,93.10
2018-01-25T21:51:37.082Z,40.40
2018-01-25T21:54:05.209Z,24.23
2018-01-25T21:56:37.091Z,14.83
2018-01-25T21:59:05.226Z,12.23
2018-01-25T22:01:33.352Z,7.03
2018-01-25T22:04:01.569Z,13.60
2018-01-25T22:06:29.704Z,35.90
2018-01-25T22:08:57.991Z,151.13
2018-01-25T22:11:26.166Z,166.17
2018-01-25T22:14:04.256Z,97.93
2018-01-25T22:16:32.430Z,429.03
2018-01-25T22:19:00.550Z,487.80
2018-01-25T22:21:28.776Z,378.23
2018-01-25T22:23:56.920Z,66.63
2018-01-25T22:26:25.060Z,24.13
2018-01-25T22:28:53.184Z,14.00
2018-01-25T22:31:21.331Z,7.83
2018-01-25T22:33:49.473Z,26.97
2018-01-25T22:36:17.624Z,58.17
2018-01-25T22:38:45.754Z,57.90
2018-01-25T22:41:14.516Z,26.83
2018-01-25T22:43:48.072Z,26.63
2018-01-25T22:46:16.188Z,27.90
2018-01-25T22:48:44.306Z,20.63
2018-01-25T22:51:12.775Z,11.07
2018-01-25T22:53:40.995Z,10.40
2018-01-25T22:56:09.153Z,7.93
2018-01-25T22:58:37.300Z,9.10
2018-01-25T23:01:05.473Z,8.90
2018-01-25T23:03:33.650Z,8.30
2018-01-25T23:06:01.933Z,8.40
2018-01-25T23:08:30.085Z,7.70
2018-01-25T23:10:58.264Z,8.13
2018-01-25T23:13:26.434Z,8.57
2018-01-25T23:15:54.666Z,7.73
2018-01-25T23:18:22.856Z,8.43
2018-01-25T23:20:54.782Z,8.10
2018-01-25T23:23:22.899Z,8.10
2018-01-25T23:25:51.015Z,8.63
2018-01-25T23:28:19.131Z,8.37
2018-01-25T23:30:47.221Z,9.50
2018-01-25T23:33:15.359Z,9.40
2018-01-25T23:35:43.474Z,8.30
2018-01-25T23:38:36.791Z,8.50
2018-01-25T23:41:04.901Z,7.57
2018-01-25T23:43:33.007Z,7.20
2018-01-25T23:46:01.115Z,6.70
2018-01-25T23:48:29.230Z,6.43
2018-01-25T23:51:12.439Z,6.17
2018-01-25T23:53:40.561Z,6.20
2018-01-25T23:56:08.667Z,7.03
2018-01-25T23:58:36.763Z,5.87
